Tagged With: Photography

A Winter’s Day

We took the dog out for a pleasant three-mile walk this afternoon and were graced with this lovely view at the end of the street: (Click to embiggenate) We would note that the weather was in the low-twenties and still snowing (for those so inclined: METAR KOUN 211954Z 36009KT 1SM BKN008OVC014 M05/M06 A3037 -SNBR).  Local … Continue reading »

Categories: Blog | Tags: , , , , | Leave a comment

Random Flower Picture

Categories: Blog | Tags: , | Leave a comment

Gingers

Up too late, we find that our evening Jeopardy episode has as a category “Famous Gingers.” We cleaned up. Looking forward to some good sleep, followed by a decent breakfast: a (lightly, so as not to damage the sourdough flavor) toasted English muffin, topped with kippers, sautéed in a touch of butter, and with a … Continue reading »

Categories: Blog | Tags: , , , , , , , | 1 Comment

Camera Repair

A lovely, well-illustrated, step-by-step guide to disassembly and repair of the Nikon D70: D70s Camera Repair How-To …for no reason at all, we’re certain.

Categories: Blog | Tags: , | Leave a comment

The Lens of a Five-Year-Old

Meet Nemo: Chief: And a cockatiel who shall remain nameless:

Categories: Blog | Tags: , , | Leave a comment